Time;durP1;ratioP1;P1;durP2;ratioP2;P2;SDS_P1;SDS_P2;PMS_P1;PMS_P2;Temp;Humidity;BMP_temperature;BMP_pressure;BME280_temperature;BME280_humidity;BME280_pressure;Samples;Min_cycle;Max_cycle;Signal;HPM_P1;HPM_P2
2022/01/19 00:01:19;;;;;;;16.33;12.40;;;;;;;2.84;63.47;100829.59;5098115;28;20729;-67
2022/01/19 00:03:47;;;;;;;9.90;8.53;;;;;;;1.67;64.38;100796.25;5097052;28;20611;-66
2022/01/19 00:06:14;;;;;;;11.33;7.80;;;;;;;1.41;65.76;100808.22;5096864;28;20613;-66
2022/01/19 00:08:41;;;;;;;12.83;8.03;;;;;;;3.89;60.32;100762.19;5102033;28;20233;-67
2022/01/19 00:11:08;;;;;;;13.43;9.10;;;;;;;2.27;63.96;100813.78;5099045;28;20233;-66
2022/01/19 00:13:35;;;;;;;13.07;8.50;;;;;;;2.84;61.40;100773.41;5106367;28;20232;-66
2022/01/19 00:16:03;;;;;;;11.23;7.40;;;;;;;1.29;65.23;100762.44;5107229;28;20673;-67
2022/01/19 00:18:29;;;;;;;12.13;8.23;;;;;;;3.32;60.90;100744.00;5107737;28;20392;-67
2022/01/19 00:20:57;;;;;;;10.47;7.60;;;;;;;3.73;60.11;100728.09;5083367;28;22690;-66
2022/01/19 00:23:24;;;;;;;11.10;8.40;;;;;;;2.67;63.48;100766.56;5076279;28;20234;-66
2022/01/19 00:25:53;;;;;;;13.10;9.20;;;;;;;3.20;61.47;100732.44;5085632;28;20232;-66
2022/01/19 00:28:20;;;;;;;15.00;9.60;;;;;;;1.12;66.11;100724.81;5089239;28;20239;-66
2022/01/19 00:30:48;;;;;;;11.30;8.30;;;;;;;0.78;67.77;100750.34;5084222;28;20218;-67
2022/01/19 00:33:18;;;;;;;10.43;8.13;;;;;;;1.60;67.42;100810.66;5076935;28;20226;-66
2022/01/19 00:35:47;;;;;;;13.47;9.23;;;;;;;3.89;59.78;100703.28;5093959;28;20225;-66
2022/01/19 00:38:14;;;;;;;10.50;8.30;;;;;;;1.29;66.49;100775.59;5084813;28;20230;-66
2022/01/19 00:40:43;;;;;;;12.10;9.07;;;;;;;0.58;68.01;100750.56;5078507;28;20592;-66
2022/01/19 00:43:13;;;;;;;10.90;7.67;;;;;;;1.11;66.81;100785.34;5097934;28;20232;-66
2022/01/19 00:45:42;;;;;;;10.97;8.67;;;;;;;1.85;66.91;100810.94;5073281;28;20233;-66
2022/01/19 00:48:26;;;;;;;10.90;7.23;;;;;;;2.51;64.27;100769.28;5085977;28;20223;-66
2022/01/19 00:50:54;;;;;;;10.40;7.90;;;;;;;1.27;66.83;100761.69;5088515;28;20225;-66
2022/01/19 00:53:21;;;;;;;11.93;8.03;;;;;;;3.06;62.74;100739.47;5089021;28;20229;-67
2022/01/19 00:55:47;;;;;;;10.90;8.60;;;;;;;2.58;62.29;100724.97;5087819;28;20214;-66
2022/01/19 00:58:14;;;;;;;11.27;8.13;;;;;;;2.64;62.77;100738.59;5094735;28;20569;-66
2022/01/19 01:00:42;;;;;;;10.77;8.53;;;;;;;2.47;62.13;100715.13;5081904;28;20420;-67
2022/01/19 01:03:10;;;;;;;10.43;8.07;;;;;;;2.19;63.66;100731.78;5093884;27;20229;-66
2022/01/19 01:05:38;;;;;;;14.47;8.93;;;;;;;1.98;64.25;100736.56;5109611;27;20226;-66
2022/01/19 01:08:05;;;;;;;12.93;8.63;;;;;;;1.42;65.18;100728.41;5131352;27;20223;-66
2022/01/19 01:10:40;;;;;;;13.93;9.10;;;;;;;2.61;62.55;100725.66;5129246;27;20213;-66
2022/01/19 01:16:16;;;;;;;14.93;8.73;;;;;;;2.24;63.87;100719.16;5080006;27;20239;-67
2022/01/19 01:18:44;;;;;;;12.10;7.43;;;;;;;3.11;61.69;100711.97;5126534;27;20239;-67
2022/01/19 01:21:11;;;;;;;12.53;8.23;;;;;;;3.41;60.54;100680.97;5127511;27;20234;-66
2022/01/19 01:23:38;;;;;;;10.37;8.27;;;;;;;4.06;59.09;100647.50;5127338;27;20235;-66
2022/01/19 01:26:07;;;;;;;10.83;8.67;;;;;;;2.41;61.26;100642.63;5128336;27;20233;-66
2022/01/19 01:28:34;;;;;;;12.23;8.53;;;;;;;1.39;65.20;100650.56;5127705;27;20228;-66
2022/01/19 01:31:01;;;;;;;10.47;8.13;;;;;;;2.96;61.61;100647.91;5125302;27;20221;-67
2022/01/19 01:33:28;;;;;;;12.60;8.43;;;;;;;3.11;62.08;100667.97;5128255;27;20227;-67
2022/01/19 01:35:56;;;;;;;11.63;8.63;;;;;;;3.60;60.02;100632.22;5128570;27;20231;-67
2022/01/19 01:38:23;;;;;;;12.63;8.60;;;;;;;2.30;63.47;100666.97;5128344;27;20228;-66
2022/01/19 01:41:12;;;;;;;10.47;8.57;;;;;;;1.95;62.46;100608.63;5127453;27;20235;-67
2022/01/19 01:43:41;;;;;;;12.60;8.23;;;;;;;0.38;68.99;100660.59;5128175;27;20236;-66
2022/01/19 01:46:43;;;;;;;9.50;7.30;;;;;;;-0.31;70.87;100617.09;5128463;27;20217;-66
2022/01/19 01:48:58;;;;;;;11.03;7.47;;;;;;;0.40;70.38;100679.78;5127365;27;20919;-66
2022/01/19 01:54:11;;;;;;;12.63;8.33;;;;;;;0.67;68.60;100650.28;5127846;27;20227;-66
2022/01/19 01:56:38;;;;;;;11.30;7.90;;;;;;;1.10;68.57;100676.75;5127483;27;20707;-66
2022/01/19 01:59:05;;;;;;;9.43;7.53;;;;;;;1.92;66.35;100671.97;5128096;27;20236;-66
2022/01/19 02:01:34;;;;;;;9.37;6.97;;;;;;;-0.21;69.81;100589.44;5124645;27;20227;-67
2022/01/19 02:04:01;;;;;;;9.90;7.00;;;;;;;0.42;68.93;100624.53;5127511;27;20227;-66
2022/01/19 02:06:32;;;;;;;10.63;7.33;;;;;;;1.61;66.70;100642.25;5127703;27;20229;-66
2022/01/19 02:23:20;;;;;;;9.47;6.20;;;;;;;1.78;64.74;100575.47;5120753;27;20826;-66
2022/01/19 02:25:52;;;;;;;8.47;7.10;;;;;;;3.10;61.71;100533.63;5127934;27;20229;-66
2022/01/19 02:40:11;;;;;;;9.53;6.40;;;;;;;3.27;60.47;100483.25;5115270;27;20220;-66
2022/01/19 02:51:02;;;;;;;7.83;6.27;;;;;;;3.20;58.72;100450.31;5120501;27;21663;-66
2022/01/19 02:53:29;;;;;;;8.90;6.13;;;;;;;2.59;60.99;100487.81;5126688;27;20251;-67
2022/01/19 02:55:56;;;;;;;7.97;6.33;;;;;;;1.18;63.87;100481.84;5127309;27;20226;-66
2022/01/19 02:58:24;;;;;;;8.00;6.40;;;;;;;1.51;64.82;100513.13;5127208;27;20777;-66
2022/01/19 03:08:58;;;;;;;10.73;6.30;;;;;;;2.14;63.83;100508.34;5119272;28;20774;-67
2022/01/19 03:11:25;;;;;;;10.40;6.83;;;;;;;0.53;65.63;100471.69;5127246;28;20236;-66
2022/01/19 03:13:55;;;;;;;10.73;6.60;;;;;;;0.81;66.85;100519.03;5129423;27;20249;-66
2022/01/19 03:16:22;;;;;;;8.67;6.87;;;;;;;2.37;62.12;100459.44;5127079;28;20223;-67
2022/01/19 03:18:50;;;;;;;10.03;6.83;;;;;;;3.25;60.35;100450.84;5126278;28;20246;-66
2022/01/19 03:21:17;;;;;;;10.10;6.60;;;;;;;2.33;61.55;100454.50;5126965;28;20641;-66
2022/01/19 03:23:44;;;;;;;8.17;6.77;;;;;;;1.82;62.57;100471.75;5126421;28;20676;-66
2022/01/19 03:26:11;;;;;;;8.53;6.97;;;;;;;3.00;60.80;100457.84;5126742;28;20232;-67
2022/01/19 03:28:38;;;;;;;10.33;7.33;;;;;;;3.66;58.43;100422.50;5126387;28;20224;-66
2022/01/19 03:31:05;;;;;;;12.40;7.37;;;;;;;4.02;57.02;100397.03;5123891;28;20224;-66
2022/01/19 03:33:32;;;;;;;11.30;7.47;;;;;;;4.27;56.01;100388.97;5126757;28;20231;-66
2022/01/19 03:36:00;;;;;;;10.57;7.37;;;;;;;4.30;55.28;100393.19;5126761;28;20725;-67
2022/01/19 03:38:27;;;;;;;10.60;7.07;;;;;;;4.52;54.74;100387.97;5126738;28;20224;-66
2022/01/19 03:40:54;;;;;;;9.83;6.60;;;;;;;4.38;55.02;100389.97;5126970;28;20235;-67
2022/01/19 03:43:20;;;;;;;10.00;7.20;;;;;;;4.44;54.81;100389.50;5126351;28;20227;-66
2022/01/19 03:45:53;;;;;;;10.30;7.33;;;;;;;4.06;55.66;100396.69;5129255;27;20231;-66
2022/01/19 03:51:02;;;;;;;10.23;7.87;;;;;;;3.26;57.28;100413.00;5130385;27;20233;-66
2022/01/19 03:53:29;;;;;;;11.57;8.83;;;;;;;3.10;57.60;100422.91;5129751;27;20228;-67
2022/01/19 03:55:56;;;;;;;10.10;8.50;;;;;;;3.19;57.57;100423.13;5130767;27;20732;-66
2022/01/19 03:58:23;;;;;;;11.07;8.80;;;;;;;3.37;57.03;100421.03;5130493;27;20223;-66
2022/01/19 04:00:54;;;;;;;11.83;8.73;;;;;;;3.58;56.44;100402.81;5126461;27;20231;-66
2022/01/19 04:03:35;;;;;;;13.47;9.10;;;;;;;3.21;57.11;100415.13;5130438;27;20230;-66
2022/01/19 04:06:15;;;;;;;13.33;10.20;;;;;;;3.23;56.93;100403.50;5123741;27;20223;-66
2022/01/19 04:08:42;;;;;;;11.77;9.30;;;;;;;2.94;58.00;100413.44;5130123;27;20226;-66
2022/01/19 04:11:10;;;;;;;13.23;9.90;;;;;;;3.28;56.84;100416.34;5129895;27;20219;-66
2022/01/19 04:16:36;;;;;;;14.00;9.67;;;;;;;3.07;57.00;100405.53;5083821;27;20221;-66
2022/01/19 04:22:03;;;;;;;15.17;10.07;;;;;;;3.13;56.82;100407.72;5115986;27;20223;-66
2022/01/19 04:24:31;;;;;;;14.37;10.47;;;;;;;3.07;56.88;100400.28;5129835;27;20739;-66
2022/01/19 04:30:08;;;;;;;14.47;10.67;;;;;;;3.18;57.04;100396.88;5129411;27;20611;-66
2022/01/19 04:32:50;;;;;;;14.57;10.97;;;;;;;3.26;56.36;100393.69;5127898;27;20229;-66
2022/01/19 04:35:22;;;;;;;15.30;10.50;;;;;;;3.20;56.52;100387.91;5129318;27;20234;-72
2022/01/19 04:46:26;;;;;;;13.30;10.67;;;;;;;2.30;59.49;100434.47;5127523;27;20214;-68
2022/01/19 05:05:23;;;;;;;12.40;9.70;;;;;;;0.79;64.05;100428.13;5110272;27;20622;-66
2022/01/19 05:15:48;;;;;;;13.80;9.50;;;;;;;2.12;59.71;100394.38;5128350;27;20229;-66
2022/01/19 05:18:16;;;;;;;12.40;9.23;;;;;;;1.58;61.74;100413.66;5129361;27;20228;-66
2022/01/19 05:20:45;;;;;;;11.60;9.23;;;;;;;1.30;62.97;100427.69;5128081;27;20632;-66
2022/01/19 05:23:12;;;;;;;14.60;9.63;;;;;;;2.22;60.57;100420.94;5128856;27;20222;-66
2022/01/19 05:25:39;;;;;;;13.87;10.13;;;;;;;2.09;60.54;100408.63;5128313;27;20236;-66
2022/01/19 05:28:06;;;;;;;12.50;9.27;;;;;;;2.50;60.09;100402.38;5128563;27;20230;-66
2022/01/19 05:30:33;;;;;;;13.87;9.43;;;;;;;1.88;61.34;100408.22;5124926;27;20224;-66
2022/01/19 05:33:00;;;;;;;14.27;9.53;;;;;;;2.98;58.13;100369.25;5128267;27;20229;-66
2022/01/19 05:35:27;;;;;;;14.30;10.13;;;;;;;2.22;60.19;100387.56;5128634;27;20660;-66
2022/01/19 05:37:54;;;;;;;13.03;9.33;;;;;;;2.07;59.85;100378.06;5128178;27;20243;-66
2022/01/19 05:40:21;;;;;;;12.60;9.77;;;;;;;2.64;59.26;100385.63;5129110;27;20224;-66
2022/01/19 05:42:49;;;;;;;13.73;10.27;;;;;;;2.01;61.03;100399.53;5118693;27;20605;-66
2022/01/19 05:45:18;;;;;;;13.30;10.27;;;;;;;2.03;60.76;100387.13;5128854;27;20223;-66
2022/01/19 05:47:48;;;;;;;14.30;9.73;;;;;;;2.79;58.59;100378.44;5128207;27;20601;-66
2022/01/19 05:50:15;;;;;;;13.17;10.00;;;;;;;2.34;59.80;100371.91;5128300;27;20236;-66
2022/01/19 05:52:41;;;;;;;12.47;9.77;;;;;;;2.65;59.09;100373.31;5128208;27;20227;-66
2022/01/19 05:55:09;;;;;;;12.93;10.23;;;;;;;1.63;61.82;100393.16;5127421;27;20663;-66
2022/01/19 05:57:36;;;;;;;12.80;10.50;;;;;;;0.49;64.67;100352.03;5128093;27;20254;-66
2022/01/19 06:00:05;;;;;;;15.70;10.83;;;;;;;0.58;64.30;100404.00;5127717;27;20234;-66
2022/01/19 06:02:32;;;;;;;15.77;10.83;;;;;;;0.28;64.89;100378.63;5125450;27;20274;-66
2022/01/19 06:04:59;;;;;;;14.23;11.00;;;;;;;1.13;61.94;100386.69;5128151;27;20225;-66
2022/01/19 06:07:29;;;;;;;12.30;10.27;;;;;;;1.02;63.34;100410.97;5126813;27;20228;-66
2022/01/19 06:10:07;;;;;;;14.50;10.97;;;;;;;1.24;62.83;100413.13;5127814;27;20223;-66
2022/01/19 06:12:35;;;;;;;16.50;11.57;;;;;;;1.12;62.16;100388.44;5127164;27;20221;-66
2022/01/19 06:15:03;;;;;;;16.03;11.57;;;;;;;0.62;64.93;100408.13;5130685;27;20230;-66
2022/01/19 06:17:30;;;;;;;14.03;11.17;;;;;;;0.43;64.43;100375.09;5127208;27;20743;-66
2022/01/19 06:19:57;;;;;;;14.40;10.30;;;;;;;1.35;63.32;100422.97;5127958;27;20249;-66
2022/01/19 06:22:24;;;;;;;15.80;11.83;;;;;;;1.41;62.56;100409.44;5127479;27;20271;-66
2022/01/19 06:24:50;;;;;;;18.43;12.37;;;;;;;0.44;63.63;100358.41;5126670;27;20228;-66
2022/01/19 06:27:17;;;;;;;17.13;12.50;;;;;;;0.43;64.31;100385.59;5127704;27;20723;-66
2022/01/19 06:29:44;;;;;;;13.93;11.23;;;;;;;-0.38;66.22;100362.25;5127336;27;20235;-66
2022/01/19 06:32:11;;;;;;;16.23;12.30;;;;;;;-2.06;71.09;100279.56;5128207;27;20221;-66
2022/01/19 06:34:38;;;;;;;15.57;12.33;;;;;;;0.59;64.14;100395.19;5126292;27;20233;-66
2022/01/19 06:37:05;;;;;;;32.93;22.17;;;;;;;-1.04;69.13;100407.78;5127534;27;20235;-66
2022/01/19 06:39:32;;;;;;;27.67;18.80;;;;;;;-1.96;70.17;100282.53;5127293;27;20226;-66
2022/01/19 06:41:59;;;;;;;22.03;14.60;;;;;;;-0.24;66.64;100415.72;5127459;27;20665;-66
2022/01/19 06:44:26;;;;;;;18.33;11.83;;;;;;;0.23;66.08;100420.03;5127009;27;20214;-66
2022/01/19 06:46:53;;;;;;;19.37;13.20;;;;;;;0.54;63.59;100384.97;5126809;27;20221;-66
2022/01/19 06:49:20;;;;;;;19.17;13.33;;;;;;;1.06;62.69;100382.72;5127283;27;20229;-66
2022/01/19 06:51:47;;;;;;;19.57;14.13;;;;;;;-1.58;68.56;100279.69;5127260;27;20222;-66
2022/01/19 06:54:14;;;;;;;19.43;13.93;;;;;;;-1.71;69.29;100299.56;5127033;27;20905;-66
2022/01/19 06:56:41;;;;;;;18.03;13.43;;;;;;;-1.35;70.02;100388.41;5127013;27;20526;-66
2022/01/19 06:59:08;;;;;;;16.70;12.80;;;;;;;-1.52;69.28;100321.25;5127156;27;20244;-66
2022/01/19 07:01:35;;;;;;;17.00;12.57;;;;;;;-1.62;70.52;100340.97;5123708;27;20233;-66
2022/01/19 07:04:04;;;;;;;17.30;12.47;;;;;;;-1.20;72.65;100423.41;5126469;27;20729;-66
2022/01/19 07:06:31;;;;;;;17.50;12.90;;;;;;;-1.36;70.77;100385.88;5127099;27;20230;-66
2022/01/19 07:08:58;;;;;;;18.13;12.73;;;;;;;-1.65;71.01;100355.03;5126005;27;20869;-66
2022/01/19 07:11:25;;;;;;;16.17;11.90;;;;;;;-1.46;70.47;100367.19;5127185;28;20225;-66
2022/01/19 07:13:52;;;;;;;20.27;12.93;;;;;;;-0.60;68.34;100403.72;5129932;27;20221;-66
2022/01/19 07:16:19;;;;;;;17.17;13.27;;;;;;;-1.60;69.35;100315.56;5127025;28;20705;-66
2022/01/19 07:18:46;;;;;;;19.03;13.43;;;;;;;-2.41;74.49;100297.00;5126871;27;20229;-66
2022/01/19 07:21:13;;;;;;;18.93;12.87;;;;;;;-2.15;71.73;100285.22;5131187;27;20222;-66
2022/01/19 07:23:39;;;;;;;18.83;14.20;;;;;;;-0.19;67.60;100377.81;5130840;27;20225;-66
2022/01/19 07:26:06;;;;;;;21.20;15.17;;;;;;;0.53;65.21;100359.63;5131022;27;20221;-66
2022/01/19 07:28:33;;;;;;;21.50;14.37;;;;;;;0.92;63.18;100324.00;5130580;27;20221;-65
2022/01/19 07:31:00;;;;;;;18.23;14.87;;;;;;;0.81;63.38;100331.72;5128124;27;20228;-67
2022/01/19 07:33:31;;;;;;;22.87;15.67;;;;;;;0.61;64.09;100335.56;5130294;27;20225;-66
2022/01/19 07:35:58;;;;;;;26.70;19.90;;;;;;;0.88;63.28;100338.25;5131333;27;20219;-66
2022/01/19 07:38:26;;;;;;;22.10;16.33;;;;;;;0.16;65.11;100326.88;5130171;27;20221;-66
2022/01/19 07:40:54;;;;;;;24.43;15.20;;;;;;;0.57;64.27;100329.66;5131139;27;20231;-66
2022/01/19 07:43:21;;;;;;;19.13;14.03;;;;;;;-0.23;67.56;100346.63;5127088;27;20609;-65
2022/01/19 07:45:48;;;;;;;22.10;16.17;;;;;;;0.82;64.53;100347.38;5118456;27;20227;-65
2022/01/19 07:48:16;;;;;;;22.50;15.83;;;;;;;0.26;65.72;100339.34;5097046;27;20268;-66
2022/01/19 07:50:43;;;;;;;21.57;15.30;;;;;;;0.63;65.47;100352.06;5114934;27;20225;-66
2022/01/19 07:53:10;;;;;;;20.90;14.43;;;;;;;0.56;65.05;100342.88;5115655;27;20618;-65
2022/01/19 07:55:37;;;;;;;19.13;14.27;;;;;;;0.62;65.12;100337.22;5116533;27;20220;-65
2022/01/19 07:58:04;;;;;;;19.73;14.97;;;;;;;0.70;64.86;100342.03;5115043;27;20226;-66
2022/01/19 08:00:33;;;;;;;18.23;14.47;;;;;;;0.94;63.96;100337.03;5124318;27;20226;-66
2022/01/19 08:03:00;;;;;;;19.00;14.60;;;;;;;0.44;65.03;100326.06;5129310;27;20394;-66
2022/01/19 08:05:27;;;;;;;24.17;15.70;;;;;;;1.20;63.25;100327.53;5130198;27;20227;-66
2022/01/19 08:07:54;;;;;;;19.80;13.93;;;;;;;1.38;62.83;100329.00;5130326;27;20236;-66
2022/01/19 08:10:21;;;;;;;21.60;15.07;;;;;;;0.85;63.57;100321.84;5130426;27;20227;-66
2022/01/19 08:12:51;;;;;;;21.73;14.90;;;;;;;0.67;65.08;100344.81;5120337;27;20233;-66
2022/01/19 08:15:18;;;;;;;21.23;14.73;;;;;;;1.27;63.86;100338.50;5115056;27;20225;-65
2022/01/19 08:17:45;;;;;;;21.03;14.80;;;;;;;0.15;67.74;100343.53;5129551;27;20226;-65
2022/01/19 08:20:12;;;;;;;21.07;14.60;;;;;;;0.99;64.56;100343.72;5130519;27;20213;-66
2022/01/19 08:22:39;;;;;;;21.97;15.40;;;;;;;1.30;63.00;100309.41;5129436;27;20224;-65
2022/01/19 08:25:06;;;;;;;23.13;15.20;;;;;;;1.14;64.01;100341.03;5129318;27;20226;-65
2022/01/19 08:27:34;;;;;;;21.07;15.60;;;;;;;1.47;62.69;100317.06;5129634;27;20681;-66
2022/01/19 08:30:01;;;;;;;21.23;15.47;;;;;;;0.53;65.37;100316.78;5129389;27;20227;-66
2022/01/19 08:32:28;;;;;;;24.30;15.40;;;;;;;0.76;65.18;100331.16;5126530;27;20718;-65
2022/01/19 08:34:59;;;;;;;20.53;15.10;;;;;;;0.70;65.66;100340.22;5128444;27;21521;-66
2022/01/19 08:37:26;;;;;;;23.13;16.03;;;;;;;0.57;66.16;100340.16;5129602;27;20610;-66
2022/01/19 08:39:53;;;;;;;21.57;16.17;;;;;;;0.61;66.02;100346.91;5123450;27;20221;-66
2022/01/19 08:42:21;;;;;;;29.77;19.30;;;;;;;1.14;65.07;100351.56;5119634;27;20214;-66
2022/01/19 08:44:53;;;;;;;26.17;17.00;;;;;;;0.99;65.01;100345.47;5129203;27;20352;-66
2022/01/19 08:47:20;;;;;;;19.20;14.43;;;;;;;0.98;65.18;100349.88;5129296;27;20232;-65
2022/01/19 08:49:52;;;;;;;16.60;13.57;;;;;;;0.87;65.32;100341.81;5129685;27;20215;-66
2022/01/19 08:52:20;;;;;;;20.77;13.47;;;;;;;0.96;64.80;100333.38;5122685;27;20225;-66
2022/01/19 08:54:47;;;;;;;22.77;15.83;;;;;;;0.99;65.05;100335.81;5116278;27;20703;-65
2022/01/19 08:57:15;;;;;;;24.93;16.77;;;;;;;1.05;65.33;100342.47;5129293;27;20725;-66
2022/01/19 08:59:42;;;;;;;21.37;15.00;;;;;;;1.29;64.22;100329.56;5129633;27;20640;-66
2022/01/19 09:02:10;;;;;;;25.13;16.90;;;;;;;1.14;65.53;100349.75;5126160;27;20228;-66
2022/01/19 09:04:37;;;;;;;29.40;19.77;;;;;;;1.15;64.72;100335.69;5109699;27;20232;-66
2022/01/19 09:07:04;;;;;;;22.10;16.00;;;;;;;1.28;65.44;100355.94;5129109;27;20231;-66
2022/01/19 09:09:31;;;;;;;22.30;16.33;;;;;;;1.91;63.64;100347.50;5128704;27;20227;-66
2022/01/19 09:11:58;;;;;;;24.83;16.13;;;;;;;0.69;65.13;100299.16;5111081;27;20214;-66
2022/01/19 09:14:25;;;;;;;21.97;16.87;;;;;;;1.46;64.77;100335.56;5131195;27;20731;-66
2022/01/19 09:16:52;;;;;;;21.20;15.20;;;;;;;0.78;66.55;100316.97;5128751;27;20261;-66
2022/01/19 09:19:20;;;;;;;18.60;14.47;;;;;;;-0.09;68.82;100283.72;5128870;27;20236;-66
2022/01/19 09:21:48;;;;;;;19.77;14.73;;;;;;;0.90;66.64;100314.53;5128630;27;20226;-66
2022/01/19 09:24:17;;;;;;;18.90;14.73;;;;;;;0.83;67.11;100314.91;5128793;27;20228;-66
2022/01/19 09:26:44;;;;;;;21.40;15.80;;;;;;;0.27;67.85;100292.97;5127967;27;20667;-67
2022/01/19 09:29:13;;;;;;;21.10;14.10;;;;;;;0.92;66.88;100331.03;5124348;27;20244;-67
2022/01/19 09:31:43;;;;;;;22.30;15.53;;;;;;;1.04;67.29;100337.31;5102295;27;20546;-66
2022/01/19 09:34:15;;;;;;;17.10;13.40;;;;;;;0.16;70.66;100332.13;5113266;27;20219;-66
2022/01/19 09:36:46;;;;;;;26.00;14.37;;;;;;;-0.91;73.64;100298.81;5118303;27;20242;-66
2022/01/19 09:39:20;;;;;;;20.37;14.77;;;;;;;-0.92;73.30;100276.16;5128475;27;20237;-66
2022/01/19 09:41:48;;;;;;;20.10;13.87;;;;;;;-0.71;74.08;100310.81;5128370;27;20693;-66
2022/01/19 09:44:17;;;;;;;20.00;13.57;;;;;;;-1.15;73.97;100273.94;5127191;27;20232;-66
2022/01/19 09:46:45;;;;;;;21.90;14.33;;;;;;;-0.44;74.49;100340.78;5109651;27;20639;-66
2022/01/19 09:49:15;;;;;;;22.67;13.97;;;;;;;-0.33;72.16;100312.19;5128304;27;20752;-66
2022/01/19 09:51:45;;;;;;;20.00;14.13;;;;;;;-0.06;71.39;100308.94;5128633;27;20237;-66
2022/01/19 09:54:20;;;;;;;19.13;13.20;;;;;;;-0.52;73.67;100312.41;5128268;27;20223;-66
2022/01/19 09:56:48;;;;;;;27.73;13.60;;;;;;;0.12;71.99;100310.47;5127617;27;20393;-66
2022/01/19 09:59:16;;;;;;;19.07;14.07;;;;;;;-0.30;72.28;100278.78;5128398;27;20242;-66
2022/01/19 10:01:55;;;;;;;19.57;12.87;;;;;;;-0.35;71.67;100266.88;5124754;27;20226;-66
2022/01/19 10:04:31;;;;;;;18.10;13.10;;;;;;;-0.25;71.78;100275.91;5128002;27;20226;-66
2022/01/19 10:07:10;;;;;;;17.80;12.97;;;;;;;-0.69;72.95;100268.81;5127107;27;20689;-66
2022/01/19 10:09:46;;;;;;;14.37;9.70;;;;;;;-0.55;73.01;100276.72;5127473;27;20234;-66
2022/01/19 10:18:17;;;;;;;21.50;13.20;;;;;;;-0.00;70.99;100248.22;5127384;27;20324;-66
2022/01/19 10:20:47;;;;;;;17.70;12.40;;;;;;;-0.81;73.04;100249.41;5127544;27;20224;-66
2022/01/19 10:23:38;;;;;;;17.33;12.10;;;;;;;-0.72;72.91;100240.16;5127346;27;20220;-66
2022/01/19 10:26:09;;;;;;;17.33;12.10;;;;;;;-0.27;72.04;100240.22;5127828;27;20633;-66
2022/01/19 10:29:02;;;;;;;18.40;12.50;;;;;;;-0.06;72.88;100273.03;5126878;27;20228;-66
2022/01/19 10:31:32;;;;;;;17.07;12.13;;;;;;;-0.16;70.47;100216.81;5124492;27;20223;-66
2022/01/19 10:34:16;;;;;;;15.07;10.47;;;;;;;-0.04;71.53;100262.47;5127545;27;20316;-66
2022/01/19 10:37:02;;;;;;;15.03;12.23;;;;;;;0.14;69.60;100226.44;5127167;27;20234;-66
2022/01/19 10:39:43;;;;;;;15.93;11.63;;;;;;;-0.26;70.88;100215.69;5127316;27;20262;-66
2022/01/19 10:42:11;;;;;;;15.20;11.10;;;;;;;0.41;69.05;100214.22;5127554;27;20226;-66
2022/01/19 10:44:54;;;;;;;23.00;13.73;;;;;;;0.82;69.45;100233.56;5126610;27;20224;-67
2022/01/19 10:47:41;;;;;;;19.60;12.60;;;;;;;0.55;69.95;100221.25;5127110;27;20718;-67
2022/01/19 10:50:10;;;;;;;19.13;12.70;;;;;;;0.79;69.54;100216.25;5127652;27;20220;-67
2022/01/19 10:52:41;;;;;;;23.93;13.80;;;;;;;2.29;66.81;100185.28;5126480;27;20617;-67
2022/01/19 10:55:20;;;;;;;16.43;12.53;;;;;;;0.10;71.01;100199.53;5126975;27;20224;-67
2022/01/19 10:57:48;;;;;;;22.30;14.10;;;;;;;2.23;66.00;100164.69;5126662;27;20234;-67
2022/01/19 11:03:52;;;;;;;16.80;12.73;;;;;;;1.72;67.06;100166.38;5093526;27;20851;-66
2022/01/19 11:06:21;;;;;;;19.40;14.13;;;;;;;1.89;66.02;100149.44;5083934;28;20225;-66
2022/01/19 11:08:50;;;;;;;18.63;13.60;;;;;;;1.69;66.42;100157.88;5082854;28;20236;-66
2022/01/19 11:11:20;;;;;;;19.10;14.47;;;;;;;2.29;64.87;100136.13;5085161;28;20230;-66
2022/01/19 11:13:53;;;;;;;20.70;14.30;;;;;;;2.59;64.28;100134.03;5078421;28;20227;-66
2022/01/19 11:16:21;;;;;;;19.07;13.63;;;;;;;2.56;64.44;100124.56;5064176;28;20223;-66
2022/01/19 11:18:48;;;;;;;19.27;14.23;;;;;;;2.48;64.07;100111.13;5063013;28;20235;-66
2022/01/19 11:21:22;;;;;;;17.47;13.30;;;;;;;2.30;64.13;100113.28;5063533;28;20226;-66
2022/01/19 11:24:08;;;;;;;19.50;13.57;;;;;;;1.97;66.37;100167.31;5055020;28;20229;-66
2022/01/19 11:26:36;;;;;;;18.57;13.07;;;;;;;2.38;64.74;100125.91;5062302;28;20640;-66
2022/01/19 11:29:18;;;;;;;22.10;14.67;;;;;;;2.78;63.35;100110.69;5063255;28;20237;-66
2022/01/19 11:31:46;;;;;;;24.53;15.20;;;;;;;2.02;65.82;100145.94;5062879;28;20222;-66
2022/01/19 11:34:15;;;;;;;19.67;13.97;;;;;;;2.29;64.43;100101.03;5062822;28;20223;-66
2022/01/19 11:36:43;;;;;;;19.07;14.10;;;;;;;2.00;65.40;100122.38;5062310;28;20732;-66
2022/01/19 11:39:10;;;;;;;22.40;15.27;;;;;;;2.74;64.14;100108.38;5062574;28;20642;-66
2022/01/19 11:41:41;;;;;;;18.77;13.77;;;;;;;2.68;63.70;100086.81;5062973;28;20239;-66
2022/01/19 11:44:13;;;;;;;22.33;15.07;;;;;;;2.78;63.43;100078.22;5062690;28;20231;-66
2022/01/19 11:46:43;;;;;;;17.63;14.47;;;;;;;2.60;64.34;100083.88;5062601;28;20222;-66
2022/01/19 11:49:13;;;;;;;20.03;15.00;;;;;;;2.41;64.77;100086.16;5062585;28;20234;-66
2022/01/19 11:51:46;;;;;;;20.17;15.50;;;;;;;3.09;63.61;100081.22;5062503;28;20243;-66
2022/01/19 11:54:30;;;;;;;19.80;15.60;;;;;;;2.76;64.98;100088.84;5062032;28;20237;-66
2022/01/19 11:57:04;;;;;;;21.23;14.43;;;;;;;2.16;64.93;100069.50;5061981;28;20703;-66
2022/01/19 11:59:37;;;;;;;18.50;13.37;;;;;;;2.22;65.66;100105.06;5062209;28;20245;-66
2022/01/19 12:02:29;;;;;;;17.03;12.67;;;;;;;2.28;64.38;100088.84;5062481;28;20230;-66
2022/01/19 12:05:24;;;;;;;23.17;14.53;;;;;;;2.34;64.77;100096.28;5061546;28;21769;-66
2022/01/19 12:08:00;;;;;;;27.50;16.20;;;;;;;2.52;63.65;100073.06;5062385;28;20234;-66
2022/01/19 12:10:30;;;;;;;20.40;14.70;;;;;;;2.57;64.06;100078.84;5061614;28;20804;-66
2022/01/19 12:16:12;;;;;;;21.20;14.07;;;;;;;2.43;64.09;100079.03;5042647;28;20237;-66
2022/01/19 12:18:49;;;;;;;18.00;12.93;;;;;;;2.21;64.90;100090.25;5048455;28;20226;-66
2022/01/19 12:21:31;;;;;;;20.30;13.77;;;;;;;2.48;64.25;100064.56;5049332;28;20305;-66
2022/01/19 12:24:36;;;;;;;20.50;14.33;;;;;;;2.92;63.89;100079.84;5048765;28;20226;-66
2022/01/19 12:27:15;;;;;;;19.07;13.33;;;;;;;2.00;65.37;100085.53;5048583;28;20776;-66
2022/01/19 12:29:42;;;;;;;21.87;14.83;;;;;;;2.91;63.65;100075.50;5063215;28;20562;-66
2022/01/19 12:32:15;;;;;;;20.00;14.03;;;;;;;2.65;64.01;100055.41;5051063;28;20228;-66
2022/01/19 12:34:43;;;;;;;20.77;15.57;;;;;;;2.28;65.20;100076.53;5046056;28;20241;-66
2022/01/19 12:37:44;;;;;;;19.90;14.03;;;;;;;2.83;64.09;100062.91;5048712;28;20232;-66
2022/01/19 12:40:16;;;;;;;20.30;14.53;;;;;;;3.05;63.63;100051.59;5048438;28;20218;-66
2022/01/19 12:42:59;;;;;;;18.97;14.00;;;;;;;3.11;63.23;100051.13;5048131;28;20231;-66
2022/01/19 12:45:54;;;;;;;18.13;14.70;;;;;;;2.68;65.31;100063.09;5048086;28;20230;-66
2022/01/19 12:48:42;;;;;;;20.67;14.27;;;;;;;2.50;65.07;100046.00;5048062;28;20230;-66
2022/01/19 12:51:54;;;;;;;18.00;14.10;;;;;;;2.64;65.12;100048.44;5034081;28;20614;-66
2022/01/19 12:54:27;;;;;;;19.30;14.57;;;;;;;2.91;64.21;100033.34;5047546;28;20283;-66
2022/01/19 12:57:01;;;;;;;21.83;17.07;;;;;;;2.90;64.70;100035.16;5048027;28;20747;-66
2022/01/19 12:59:32;;;;;;;24.93;16.13;;;;;;;2.94;64.36;100022.59;5048122;28;20220;-66
2022/01/19 13:02:00;;;;;;;21.20;15.97;;;;;;;3.04;63.11;99999.84;5047887;28;20228;-66
2022/01/19 13:04:29;;;;;;;21.37;14.77;;;;;;;3.11;63.27;99995.78;5047342;28;20226;-66
2022/01/19 13:07:22;;;;;;;20.67;15.07;;;;;;;3.22;63.87;100002.88;5030224;28;20257;-66
2022/01/19 13:12:57;;;;;;;18.83;14.93;;;;;;;3.19;63.10;99989.94;5047214;28;20622;-66
2022/01/19 13:15:43;;;;;;;18.20;15.20;;;;;;;2.78;64.83;100010.56;5048211;28;20239;-66
2022/01/19 13:18:11;;;;;;;23.23;15.43;;;;;;;2.59;64.63;100004.97;5038711;28;20646;-66
2022/01/19 13:20:53;;;;;;;20.63;14.97;;;;;;;2.67;64.85;100013.16;5047024;28;20223;-66
2022/01/19 13:23:21;;;;;;;23.53;15.13;;;;;;;3.21;63.33;99986.19;5047238;28;20683;-66